Time;durP1;ratioP1;P1;durP2;ratioP2;P2;SDS_P1;SDS_P2;PMS_P1;PMS_P2;Temp;Humidity;BMP_temperature;BMP_pressure;BME280_temperature;BME280_humidity;BME280_pressure;Samples;Min_cycle;Max_cycle;Signal;HPM_P1;HPM_P2
2023/07/12 00:02:15;;;;;;;;;;;;;;;14.10;78.03;98933.28;6313259;22;20256;-91
2023/07/12 00:04:40;;;;;;;;;;;;;;;14.08;77.62;98933.66;6312203;22;19919;-93
2023/07/12 00:07:12;;;;;;;;;;;;;;;14.05;77.01;98933.53;6312714;22;19986;-93
2023/07/12 00:09:42;;;;;;;;;;;;;;;13.96;77.32;98930.09;6286942;22;20345;-91
2023/07/12 00:12:33;;;;;;;;;;;;;;;13.93;77.56;98919.81;6289578;22;19919;-90
2023/07/12 00:15:24;;;;;;;;;;;;;;;13.85;78.05;98927.81;6286825;22;19923;-93
2023/07/12 00:17:51;;;;;;;;;;;;;;;13.89;77.39;98930.69;6293827;22;19926;-92
2023/07/12 00:20:29;;;;;;;;;;;;;;;13.86;77.89;98917.63;6322678;22;19926;-90
2023/07/12 00:23:22;;;;;;;;;;;;;;;13.90;77.69;98912.25;6317431;22;19919;-93
2023/07/12 00:25:52;;;;;;;;;;;;;;;13.83;77.56;98919.13;6283089;22;19933;-89
2023/07/12 00:28:34;;;;;;;;;;;;;;;13.85;76.85;98913.28;6263279;22;19942;-92
2023/07/12 00:31:03;;;;;;;;;;;;;;;13.87;76.41;98913.72;6288569;22;19919;-89
2023/07/12 00:33:29;;;;;;;;;;;;;;;13.82;77.60;98924.97;6312208;22;19958;-90
2023/07/12 00:39:06;;;;;;;;;;;;;;;13.82;77.58;98919.47;6311420;22;20417;-89
2023/07/12 00:45:04;;;;;;;;;;;;;;;13.70;77.29;98927.69;6301102;22;19927;-90
2023/07/12 00:47:55;;;;;;;;;;;;;;;13.63;77.61;98928.28;6301955;22;19909;-91
2023/07/12 00:50:21;;;;;;;;;;;;;;;13.67;77.64;98920.94;6252796;22;19934;-89
2023/07/12 00:52:56;;;;;;;;;;;;;;;13.62;77.73;98913.75;6321728;22;19940;-91
2023/07/12 00:55:50;;;;;;;;;;;;;;;13.53;77.78;98917.75;6234318;22;19919;-91
2023/07/12 00:58:41;;;;;;;;;;;;;;;13.52;77.93;98918.91;6229600;22;20000;-90
2023/07/12 01:01:13;;;;;;;;;;;;;;;13.46;77.97;98918.31;6232451;22;20399;-92
2023/07/12 01:04:06;;;;;;;;;;;;;;;13.40;77.67;98914.97;6262175;22;19925;-90
2023/07/12 01:06:32;;;;;;;;;;;;;;;13.42;77.56;98906.41;6280369;22;19926;-89
2023/07/12 01:09:27;;;;;;;;;;;;;;;13.41;77.96;98918.53;6280718;22;19919;-91
2023/07/12 01:11:54;;;;;;;;;;;;;;;13.42;77.52;98909.16;6230422;22;19927;-95
2023/07/12 01:14:29;;;;;;;;;;;;;;;13.42;77.92;98908.38;6229661;22;19926;-90
2023/07/12 01:17:00;;;;;;;;;;;;;;;13.38;78.21;98895.31;6277697;22;19946;-90
2023/07/12 01:19:26;;;;;;;;;;;;;;;13.38;78.19;98906.28;6228666;22;19993;-91
2023/07/12 01:22:17;;;;;;;;;;;;;;;13.33;78.27;98901.00;6279150;22;19919;-93
2023/07/12 01:24:46;;;;;;;;;;;;;;;13.33;78.16;98901.00;6221505;23;20025;-94
2023/07/12 01:27:24;;;;;;;;;;;;;;;13.36;77.92;98897.59;6171856;23;19942;-90
2023/07/12 01:29:50;;;;;;;;;;;;;;;13.34;78.38;98899.06;6196214;23;19916;-89
2023/07/12 01:32:20;;;;;;;;;;;;;;;13.28;78.44;98904.00;6253837;22;19919;-92
2023/07/12 01:34:46;;;;;;;;;;;;;;;13.32;78.32;98904.13;6198226;23;19923;-91
2023/07/12 01:37:14;;;;;;;;;;;;;;;13.31;78.05;98897.81;6247969;22;19931;-89
2023/07/12 01:40:08;;;;;;;;;;;;;;;13.35;78.12;98892.47;6246766;23;19926;-91
2023/07/12 01:42:34;;;;;;;;;;;;;;;13.30;77.93;98892.66;6247930;23;19919;-88
2023/07/12 01:45:03;;;;;;;;;;;;;;;13.30;78.13;98885.22;6246485;23;19919;-92
2023/07/12 01:47:31;;;;;;;;;;;;;;;13.33;78.12;98890.03;6248932;23;20361;-91
2023/07/12 01:50:03;;;;;;;;;;;;;;;13.35;77.66;98887.75;6247796;23;19919;-89
2023/07/12 01:52:29;;;;;;;;;;;;;;;13.39;77.65;98888.66;6248315;22;19920;-92
2023/07/12 01:55:04;;;;;;;;;;;;;;;13.45;77.99;98891.22;6248564;23;19919;-91
2023/07/12 01:58:06;;;;;;;;;;;;;;;13.41;77.42;98885.59;6248684;22;20365;-90
2023/07/12 02:00:58;;;;;;;;;;;;;;;13.36;77.73;98896.78;6197145;23;19926;-87
2023/07/12 02:03:24;;;;;;;;;;;;;;;13.42;77.32;98889.13;6258749;22;19923;-91
2023/07/12 02:05:49;;;;;;;;;;;;;;;13.37;77.08;98896.44;6247886;23;19970;-89
2023/07/12 02:08:33;;;;;;;;;;;;;;;13.36;77.14;98894.84;6247012;23;19967;-91
2023/07/12 02:10:59;;;;;;;;;;;;;;;13.35;77.62;98892.47;6245028;23;19995;-89
2023/07/12 02:13:25;;;;;;;;;;;;;;;13.33;77.61;98891.97;6247032;23;19920;-87
2023/07/12 02:15:51;;;;;;;;;;;;;;;13.33;77.40;98898.28;6222485;23;19919;-87
2023/07/12 02:18:17;;;;;;;;;;;;;;;13.30;77.05;98900.91;6198213;23;19920;-92
2023/07/12 02:21:03;;;;;;;;;;;;;;;13.32;77.05;98888.44;6250334;23;19927;-88
2023/07/12 02:23:54;;;;;;;;;;;;;;;13.41;75.91;98885.59;6230245;23;19919;-91
2023/07/12 02:26:23;;;;;;;;;;;;;;;13.38;76.61;98887.06;6251019;23;19920;-90
2023/07/12 02:28:48;;;;;;;;;;;;;;;13.42;76.39;98887.19;6251577;23;19941;-90
2023/07/12 02:31:45;;;;;;;;;;;;;;;13.40;75.97;98883.97;6248891;23;19970;-87
2023/07/12 02:34:11;;;;;;;;;;;;;;;13.42;75.92;98887.19;6198959;23;19923;-90
2023/07/12 02:36:37;;;;;;;;;;;;;;;13.44;75.56;98884.88;6222386;23;19995;-89
2023/07/12 02:39:02;;;;;;;;;;;;;;;13.46;75.75;98885.34;6223491;23;19923;-90
2023/07/12 02:41:52;;;;;;;;;;;;;;;13.55;75.49;98886.06;6227700;23;19926;-89
2023/07/12 02:44:43;;;;;;;;;;;;;;;13.57;74.72;98885.69;6248933;23;20261;-91
2023/07/12 02:47:12;;;;;;;;;;;;;;;13.59;74.85;98886.97;6248472;23;19926;-88
2023/07/12 02:49:40;;;;;;;;;;;;;;;13.51;74.55;98879.66;6251800;23;19927;-88
2023/07/12 02:52:07;;;;;;;;;;;;;;;13.51;74.48;98887.06;6197795;23;19920;-88
2023/07/12 02:54:33;;;;;;;;;;;;;;;13.55;74.02;98882.50;6252581;22;20006;-91
2023/07/12 02:59:53;;;;;;;;;;;;;;;13.58;74.08;98890.06;6133540;23;20003;-90
2023/07/12 03:02:18;;;;;;;;;;;;;;;13.59;73.52;98886.16;6133057;23;19943;-90
2023/07/12 03:04:59;;;;;;;;;;;;;;;13.60;73.10;98883.06;6134445;23;19999;-89
2023/07/12 03:07:25;;;;;;;;;;;;;;;13.51;73.02;98893.38;6157420;23;19950;-89
2023/07/12 03:09:57;;;;;;;;;;;;;;;13.52;73.76;98885.94;6157888;23;20252;-91
2023/07/12 03:12:23;;;;;;;;;;;;;;;13.57;73.40;98889.25;6157983;23;19920;-88
2023/07/12 03:14:52;;;;;;;;;;;;;;;13.57;72.89;98894.72;6157386;23;20354;-89
2023/07/12 03:17:18;;;;;;;;;;;;;;;13.54;71.82;98891.88;6158308;23;20028;-90
2023/07/12 03:19:54;;;;;;;;;;;;;;;13.57;71.45;98888.44;6158788;23;19920;-91
2023/07/12 03:23:03;;;;;;;;;;;;;;;13.62;71.03;98893.72;6135087;23;19947;-90
2023/07/12 03:25:32;;;;;;;;;;;;;;;13.66;69.89;98894.63;6133527;23;19942;-88
2023/07/12 03:27:59;;;;;;;;;;;;;;;13.70;69.97;98884.56;6136604;23;19959;-91
2023/07/12 03:30:25;;;;;;;;;;;;;;;13.82;70.85;98883.75;6160058;23;20299;-91
2023/07/12 03:32:56;;;;;;;;;;;;;;;13.92;70.42;98879.75;6134629;23;19952;-90
2023/07/12 03:35:47;;;;;;;;;;;;;;;13.94;69.41;98881.00;6133606;23;20350;-93
2023/07/12 03:38:39;;;;;;;;;;;;;;;13.97;69.69;98876.75;6224280;23;19942;-89
2023/07/12 03:41:07;;;;;;;;;;;;;;;13.99;69.06;98875.25;6250632;22;20364;-89
2023/07/12 03:43:33;;;;;;;;;;;;;;;14.01;67.75;98872.97;6278705;22;19919;-89
2023/07/12 03:46:24;;;;;;;;;;;;;;;14.04;67.40;98890.72;6228702;23;19968;-89
2023/07/12 03:53:08;;;;;;;;;;;;;;;14.18;67.78;98880.16;6253977;23;20341;-92
2023/07/12 03:55:55;;;;;;;;;;;;;;;14.23;66.67;98870.84;6201616;23;19919;-93
2023/07/12 03:58:23;;;;;;;;;;;;;;;14.39;68.01;98874.47;6136692;23;19921;-89
2023/07/12 04:00:55;;;;;;;;;;;;;;;14.37;66.69;98864.94;6137582;23;19938;-89
2023/07/12 04:03:22;;;;;;;;;;;;;;;14.48;66.83;98871.56;6141928;23;19920;-91
2023/07/12 04:05:57;;;;;;;;;;;;;;;14.53;66.26;98863.09;6139306;23;20289;-91
2023/07/12 04:08:51;;;;;;;;;;;;;;;14.53;66.24;98858.38;6135746;23;19951;-93
2023/07/12 04:11:25;;;;;;;;;;;;;;;14.40;66.59;98859.56;6133811;23;19921;-88
2023/07/12 04:14:19;;;;;;;;;;;;;;;14.34;65.22;98864.53;6063408;23;19977;-89
2023/07/12 04:16:47;;;;;;;;;;;;;;;14.32;65.92;98857.75;6046179;23;19947;-90
2023/07/12 04:19:13;;;;;;;;;;;;;;;14.32;64.76;98860.50;6043932;23;19921;-90
2023/07/12 04:21:41;;;;;;;;;;;;;;;14.30;65.44;98860.88;6048056;23;19941;-90
2023/07/12 04:24:21;;;;;;;;;;;;;;;14.33;65.57;98871.16;6033554;23;19981;-85
2023/07/12 04:26:53;;;;;;;;;;;;;;;14.43;64.64;98871.81;6256122;22;20026;-87
2023/07/12 04:29:19;;;;;;;;;;;;;;;14.43;64.83;98871.81;6255859;23;19959;-90
2023/07/12 04:31:51;;;;;;;;;;;;;;;14.51;65.09;98876.41;6229545;23;19935;-90
2023/07/12 04:34:16;;;;;;;;;;;;;;;14.59;64.32;98867.19;6254878;23;19920;-91
2023/07/12 04:36:55;;;;;;;;;;;;;;;14.66;64.54;98875.63;6253881;23;19919;-91
2023/07/12 04:39:20;;;;;;;;;;;;;;;14.49;62.78;98876.72;6252442;23;19916;-89
2023/07/12 04:41:46;;;;;;;;;;;;;;;14.47;64.03;98868.03;6256363;23;19926;-90
2023/07/12 04:44:13;;;;;;;;;;;;;;;14.51;63.28;98873.66;6255201;23;19942;-89
2023/07/12 04:46:52;;;;;;;;;;;;;;;14.27;62.74;98864.31;6252938;23;19948;-88
2023/07/12 04:49:21;;;;;;;;;;;;;;;14.26;63.63;98876.44;6252068;23;19995;-84
2023/07/12 04:51:57;;;;;;;;;;;;;;;14.22;63.08;98872.78;6249867;23;19922;-90
2023/07/12 04:54:25;;;;;;;;;;;;;;;14.26;63.44;98870.16;6254142;23;19919;-89
2023/07/12 04:56:51;;;;;;;;;;;;;;;14.27;63.88;98866.25;6227651;23;20002;-89
2023/07/12 04:59:18;;;;;;;;;;;;;;;14.33;63.07;98875.84;6236411;23;19924;-89
2023/07/12 05:01:48;;;;;;;;;;;;;;;14.28;61.39;98874.16;6260908;23;19919;-88
2023/07/12 05:04:15;;;;;;;;;;;;;;;14.43;62.63;98874.56;6259246;23;19958;-91
2023/07/12 05:06:53;;;;;;;;;;;;;;;14.53;62.35;98876.84;6259390;23;19926;-88
2023/07/12 05:09:45;;;;;;;;;;;;;;;14.63;62.71;98868.09;6262773;23;19942;-89
2023/07/12 05:12:11;;;;;;;;;;;;;;;14.73;60.65;98867.56;6261703;23;19899;-90
2023/07/12 05:14:40;;;;;;;;;;;;;;;14.76;60.98;98872.38;6210940;23;19920;-89
2023/07/12 05:17:07;;;;;;;;;;;;;;;14.72;60.85;98865.97;6261356;23;19919;-87
2023/07/12 05:19:36;;;;;;;;;;;;;;;14.85;60.54;98863.97;6261024;23;19920;-89
2023/07/12 05:22:27;;;;;;;;;;;;;;;14.96;61.24;98864.25;6229109;23;20408;-88
2023/07/12 05:24:53;;;;;;;;;;;;;;;14.84;60.22;98851.38;6227086;23;19920;-86
2023/07/12 05:27:19;;;;;;;;;;;;;;;14.78;59.55;98848.06;6248744;23;19919;-88
2023/07/12 05:29:45;;;;;;;;;;;;;;;14.76;59.09;98844.88;6249953;22;19926;-87
2023/07/12 05:35:30;;;;;;;;;;;;;;;14.69;59.79;98863.94;6252827;23;19926;-90
2023/07/12 05:38:26;;;;;;;;;;;;;;;14.75;59.78;98858.97;6255111;23;19943;-89
2023/07/12 05:40:59;;;;;;;;;;;;;;;14.78;58.62;98842.56;6255270;23;19954;-88
2023/07/12 05:43:28;;;;;;;;;;;;;;;14.73;58.84;98842.81;6254721;22;20002;-90
2023/07/12 05:46:20;;;;;;;;;;;;;;;14.81;59.43;98841.06;6226133;23;19950;-92
2023/07/12 05:48:47;;;;;;;;;;;;;;;14.95;61.29;98835.94;6259731;23;19938;-87
2023/07/12 05:51:12;;;;;;;;;;;;;;;14.91;60.42;98835.03;6225716;23;19920;-88
2023/07/12 05:53:42;;;;;;;;;;;;;;;14.95;60.05;98832.38;6253151;23;19927;-92
2023/07/12 05:56:24;;;;;;;;;;;;;;;14.99;60.02;98833.28;6262799;23;19923;-89
2023/07/12 05:58:54;;;;;;;;;;;;;;;14.94;61.05;98831.59;6259280;23;19915;-91
2023/07/12 06:01:23;;;;;;;;;;;;;;;14.71;58.50;98836.88;6263213;23;19978;-87
2023/07/12 06:04:08;;;;;;;;;;;;;;;14.81;58.85;98824.56;6262895;23;19939;-89
2023/07/12 06:06:50;;;;;;;;;;;;;;;15.10;60.88;98839.88;6257738;23;19923;-87
2023/07/12 06:09:16;;;;;;;;;;;;;;;15.10;59.15;98836.28;6229397;23;19965;-87
2023/07/12 06:11:48;;;;;;;;;;;;;;;15.19;60.18;98829.47;6255997;23;20346;-87
2023/07/12 06:14:43;;;;;;;;;;;;;;;15.10;59.17;98817.84;6277433;22;19919;-87
2023/07/12 06:17:16;;;;;;;;;;;;;;;15.07;59.07;98821.31;6226249;23;19959;-88
2023/07/12 06:19:57;;;;;;;;;;;;;;;15.13;60.12;98819.06;6206666;23;19935;-90
2023/07/12 06:22:23;;;;;;;;;;;;;;;15.19;60.39;98821.19;6254351;23;19950;-90
2023/07/12 06:25:01;;;;;;;;;;;;;;;15.05;60.35;98826.34;6252135;23;19920;-90
2023/07/12 06:27:29;;;;;;;;;;;;;;;14.94;59.93;98830.78;6229171;23;19985;-89
2023/07/12 06:29:55;;;;;;;;;;;;;;;14.92;59.80;98824.84;6205436;23;19924;-87
2023/07/12 06:32:24;;;;;;;;;;;;;;;14.95;59.68;98824.91;6254214;23;19921;-89
2023/07/12 06:34:50;;;;;;;;;;;;;;;14.86;59.61;98823.50;6251564;23;19919;-89
2023/07/12 06:37:16;;;;;;;;;;;;;;;15.00;60.64;98821.13;6249793;23;20301;-89
2023/07/12 06:39:42;;;;;;;;;;;;;;;15.02;59.24;98819.59;6253541;23;19920;-86
2023/07/12 06:42:08;;;;;;;;;;;;;;;15.06;59.49;98821.63;6255827;23;19919;-90
2023/07/12 06:44:46;;;;;;;;;;;;;;;15.07;59.66;98809.50;6225381;23;19919;-90
2023/07/12 06:47:17;;;;;;;;;;;;;;;14.89;59.02;98822.78;6260003;23;19955;-88
2023/07/12 06:49:53;;;;;;;;;;;;;;;14.85;58.67;98827.41;6231337;23;20062;-89
2023/07/12 06:52:21;;;;;;;;;;;;;;;15.04;59.47;98822.00;6228130;23;19920;-88
2023/07/12 06:54:47;;;;;;;;;;;;;;;15.08;59.11;98816.59;6251798;23;20330;-88
2023/07/12 06:57:41;;;;;;;;;;;;;;;15.16;58.40;98819.16;6252018;23;19919;-90
2023/07/12 07:00:17;;;;;;;;;;;;;;;15.11;59.27;98813.94;6253425;23;20008;-90
2023/07/12 07:03:37;;;;;;;;;;;;;;;15.15;58.41;98828.56;6252276;23;19965;-87
2023/07/12 07:06:03;;;;;;;;;;;;;;;15.04;59.01;98822.00;6248130;23;19955;-85
2023/07/12 07:12:17;;;;;;;;;;;;;;;15.16;58.54;98827.41;6189698;23;19943;-90
2023/07/12 07:15:04;;;;;;;;;;;;;;;15.42;59.21;98826.06;6187219;23;19920;-89
2023/07/12 07:17:30;;;;;;;;;;;;;;;15.62;57.47;98808.44;6144840;23;19920;-89
2023/07/12 07:19:56;;;;;;;;;;;;;;;15.92;57.65;98817.00;6168791;23;19995;-85
2023/07/12 07:22:25;;;;;;;;;;;;;;;16.12;57.86;98812.31;6190324;23;20016;-89
2023/07/12 07:24:53;;;;;;;;;;;;;;;16.15;55.34;98817.09;6163629;23;19920;-88
2023/07/12 07:27:19;;;;;;;;;;;;;;;16.28;56.62;98805.94;6141211;23;19947;-89
2023/07/12 07:29:45;;;;;;;;;;;;;;;16.28;55.30;98814.22;6163897;23;19933;-89
2023/07/12 07:32:33;;;;;;;;;;;;;;;16.04;56.06;98813.34;6150041;23;20325;-89
2023/07/12 07:34:59;;;;;;;;;;;;;;;15.94;57.39;98811.94;6166726;23;19920;-89
2023/07/12 07:37:25;;;;;;;;;;;;;;;15.89;57.14;98812.25;6190449;23;19924;-87
2023/07/12 07:40:29;;;;;;;;;;;;;;;16.01;55.29;98811.28;6137418;23;19920;-87
2023/07/12 07:43:23;;;;;;;;;;;;;;;16.19;55.77;98798.69;6164933;23;19943;-89
2023/07/12 07:45:52;;;;;;;;;;;;;;;16.41;56.14;98794.38;6175414;23;19928;-88
2023/07/12 07:48:18;;;;;;;;;;;;;;;16.52;55.71;98808.38;6180636;23;19927;-89
2023/07/12 07:50:44;;;;;;;;;;;;;;;16.62;56.23;98804.22;6258711;22;19939;-87
2023/07/12 07:53:17;;;;;;;;;;;;;;;16.41;56.48;98810.13;6226036;23;19923;-86
2023/07/12 07:55:54;;;;;;;;;;;;;;;16.07;57.58;98806.31;6252546;23;20353;-90
2023/07/12 07:58:26;;;;;;;;;;;;;;;15.78;58.36;98808.44;6246954;23;20012;-87
2023/07/12 08:03:56;;;;;;;;;;;;;;;15.45;59.68;98817.09;6201057;23;19951;-90
2023/07/12 08:06:42;;;;;;;;;;;;;;;15.45;59.88;98812.38;6079457;23;19921;-88
2023/07/12 08:09:09;;;;;;;;;;;;;;;15.39;59.42;98819.31;6076255;23;19921;-87
2023/07/12 08:11:37;;;;;;;;;;;;;;;15.39;59.84;98822.06;6051254;23;19928;-91
2023/07/12 08:14:14;;;;;;;;;;;;;;;15.39;60.79;98818.53;6052119;23;19926;-90
2023/07/12 08:17:06;;;;;;;;;;;;;;;15.36;59.59;98821.97;6177279;23;19923;-89
2023/07/12 08:19:54;;;;;;;;;;;;;;;15.31;60.11;98827.78;6111736;23;20469;-89
2023/07/12 08:22:20;;;;;;;;;;;;;;;15.25;60.73;98822.53;6161443;23;19959;-89
2023/07/12 08:24:46;;;;;;;;;;;;;;;15.22;60.44;98819.69;6111850;23;19920;-90
2023/07/12 08:27:16;;;;;;;;;;;;;;;15.15;60.68;98828.56;6110072;23;20003;-90
2023/07/12 08:30:22;;;;;;;;;;;;;;;15.17;61.62;98831.78;6158820;23;20334;-89
2023/07/12 08:32:48;;;;;;;;;;;;;;;15.10;61.11;98825.28;6156921;23;19920;-89
2023/07/12 08:38:32;;;;;;;;;;;;;;;15.07;60.41;98829.56;6164177;23;19933;-89
2023/07/12 08:41:48;;;;;;;;;;;;;;;15.18;61.53;98818.81;6148800;23;19927;-89
2023/07/12 08:44:15;;;;;;;;;;;;;;;15.17;62.05;98815.25;6133887;23;20363;-91
2023/07/12 08:47:06;;;;;;;;;;;;;;;15.27;62.24;98819.44;6138173;23;19928;-89
2023/07/12 08:50:27;;;;;;;;;;;;;;;15.43;61.56;98820.22;6162608;23;20440;-87
2023/07/12 08:52:54;;;;;;;;;;;;;;;15.57;60.66;98822.50;6110971;23;19971;-89
2023/07/12 08:55:20;;;;;;;;;;;;;;;15.83;60.63;98823.91;6105882;23;19928;-83
2023/07/12 08:58:20;;;;;;;;;;;;;;;15.92;59.49;98827.25;6234370;23;19966;-85
2023/07/12 09:00:47;;;;;;;;;;;;;;;16.02;59.43;98823.91;6194276;23;19926;-84
2023/07/12 09:03:14;;;;;;;;;;;;;;;16.18;59.50;98821.09;6191671;23;19924;-83
2023/07/12 09:05:40;;;;;;;;;;;;;;;16.26;57.98;98824.78;6216977;23;19927;-83
2023/07/12 09:08:17;;;;;;;;;;;;;;;16.09;57.98;98820.50;6243444;23;20266;-83
2023/07/12 09:10:58;;;;;;;;;;;;;;;16.03;58.46;98821.97;6195587;23;20006;-83
2023/07/12 09:13:36;;;;;;;;;;;;;;;15.91;58.83;98820.13;6219979;23;19930;-82
2023/07/12 09:16:18;;;;;;;;;;;;;;;15.93;58.71;98826.91;6253514;22;19926;-84
2023/07/12 09:18:46;;;;;;;;;;;;;;;16.05;59.31;98820.44;6274122;22;19919;-84
2023/07/12 09:21:19;;;;;;;;;;;;;;;16.07;58.50;98818.13;6222813;22;19919;-84
2023/07/12 09:23:46;;;;;;;;;;;;;;;15.98;58.30;98825.81;6276601;22;19919;-84
2023/07/12 09:26:17;;;;;;;;;;;;;;;15.97;59.22;98819.50;6249100;22;20552;-84
2023/07/12 09:28:43;;;;;;;;;;;;;;;15.94;58.38;98827.69;6273389;22;19926;-85
2023/07/12 09:31:11;;;;;;;;;;;;;;;15.91;59.56;98831.16;6273945;22;19919;-84
2023/07/12 09:33:37;;;;;;;;;;;;;;;15.86;59.05;98826.75;6279547;22;19927;-86
2023/07/12 09:36:06;;;;;;;;;;;;;;;15.91;59.04;98828.41;6202976;22;19959;-85
2023/07/12 09:38:35;;;;;;;;;;;;;;;16.00;60.31;98823.50;6226961;22;19940;-85
2023/07/12 09:41:10;;;;;;;;;;;;;;;16.06;58.39;98818.47;6254142;22;20364;-86
2023/07/12 09:43:41;;;;;;;;;;;;;;;16.06;57.52;98822.06;6199479;22;20330;-85
2023/07/12 09:46:17;;;;;;;;;;;;;;;16.00;57.00;98823.50;6277217;22;19945;-86
2023/07/12 09:48:53;;;;;;;;;;;;;;;16.09;56.17;98824.09;6252776;22;20702;-85
2023/07/12 09:51:28;;;;;;;;;;;;;;;16.16;58.34;98827.00;6277874;22;19927;-84
2023/07/12 09:54:03;;;;;;;;;;;;;;;16.26;60.06;98827.56;6281255;22;20348;-85
2023/07/12 09:56:37;;;;;;;;;;;;;;;16.24;62.10;98824.38;6279599;22;19996;-84
2023/07/12 09:59:12;;;;;;;;;;;;;;;16.18;64.25;98826.63;6278466;22;19915;-84
2023/07/12 10:01:44;;;;;;;;;;;;;;;15.97;65.24;98825.00;6279437;22;20014;-83
2023/07/12 10:04:29;;;;;;;;;;;;;;;15.85;66.79;98821.56;6253123;22;20299;-84
2023/07/12 10:06:58;;;;;;;;;;;;;;;15.66;68.05;98819.53;6282884;22;19964;-83
2023/07/12 10:09:30;;;;;;;;;;;;;;;15.64;68.58;98819.13;6236772;22;19934;-86
2023/07/12 10:12:04;;;;;;;;;;;;;;;15.73;67.98;98815.03;6232021;22;19919;-83
2023/07/12 10:14:33;;;;;;;;;;;;;;;15.95;67.75;98807.22;6282585;22;19941;-86
2023/07/12 10:16:59;;;;;;;;;;;;;;;16.07;65.16;98803.53;6255618;22;19919;-83
2023/07/12 10:19:32;;;;;;;;;;;;;;;16.24;64.44;98805.06;6210022;22;19919;-83
2023/07/12 10:22:01;;;;;;;;;;;;;;;16.30;63.50;98801.66;6255134;22;19963;-83
2023/07/12 10:24:35;;;;;;;;;;;;;;;16.36;64.05;98807.69;6225872;22;19919;-84
2023/07/12 10:27:04;;;;;;;;;;;;;;;16.42;64.87;98809.78;6250566;22;19923;-85
2023/07/12 10:29:42;;;;;;;;;;;;;;;16.45;64.91;98806.28;6285419;22;19919;-88
2023/07/12 10:32:15;;;;;;;;;;;;;;;16.43;62.92;98811.38;6255757;22;19950;-87
2023/07/12 10:34:51;;;;;;;;;;;;;;;16.50;63.90;98801.66;6179619;22;19924;-88
2023/07/12 10:37:25;;;;;;;;;;;;;;;16.63;61.46;98806.63;6235454;22;19922;-87
2023/07/12 10:40:06;;;;;;;;;;;;;;;16.84;62.03;98805.47;6254226;22;19900;-88
2023/07/12 10:42:44;;;;;;;;;;;;;;;17.03;61.30;98807.38;6252109;22;19919;-87
2023/07/12 10:45:30;;;;;;;;;;;;;;;17.18;59.25;98809.19;6279276;22;19925;-87
2023/07/12 10:50:39;;;;;;;;;;;;;;;17.17;56.87;98809.56;6281345;22;19920;-85
2023/07/12 10:53:15;;;;;;;;;;;;;;;17.01;56.56;98810.47;6276378;22;19919;-85
2023/07/12 10:55:49;;;;;;;;;;;;;;;16.99;56.95;98806.53;6277855;22;19978;-86
2023/07/12 10:58:18;;;;;;;;;;;;;;;16.96;56.72;98802.53;6250958;22;19919;-86
2023/07/12 11:00:53;;;;;;;;;;;;;;;16.91;53.32;98808.34;6196113;22;19919;-82
2023/07/12 11:03:21;;;;;;;;;;;;;;;16.95;53.24;98800.13;6275999;22;19919;-83
2023/07/12 11:05:59;;;;;;;;;;;;;;;17.11;53.67;98803.53;6276014;22;19919;-84
2023/07/12 11:08:31;;;;;;;;;;;;;;;17.24;51.78;98802.19;6271513;22;19994;-86
2023/07/12 11:11:01;;;;;;;;;;;;;;;17.44;51.78;98807.63;6194530;22;19919;-86
2023/07/12 11:13:36;;;;;;;;;;;;;;;17.64;50.97;98809.13;6274233;22;19941;-86
2023/07/12 11:16:05;;;;;;;;;;;;;;;17.61;51.02;98802.38;6247043;22;20020;-87
2023/07/12 11:19:08;;;;;;;;;;;;;;;17.71;48.53;98800.13;6273742;22;19931;-86
2023/07/12 11:21:53;;;;;;;;;;;;;;;17.89;50.33;98803.97;6243630;22;19939;-88
2023/07/12 11:24:24;;;;;;;;;;;;;;;17.95;48.45;98801.69;6270368;22;20004;-87
2023/07/12 11:27:18;;;;;;;;;;;;;;;17.79;47.54;98791.59;6269638;22;19919;-89
2023/07/12 11:29:48;;;;;;;;;;;;;;;17.56;47.53;98793.59;6243408;22;19915;-87
2023/07/12 11:32:33;;;;;;;;;;;;;;;17.54;49.83;98802.25;6166205;22;19930;-84
2023/07/12 11:35:04;;;;;;;;;;;;;;;17.35;48.48;98800.41;6265848;22;19972;-85
2023/07/12 11:37:50;;;;;;;;;;;;;;;17.38;49.09;98794.16;6216349;22;19919;-87
2023/07/12 11:40:18;;;;;;;;;;;;;;;17.52;49.84;98795.53;6267142;22;20349;-87
2023/07/12 11:42:46;;;;;;;;;;;;;;;17.70;50.13;98791.03;6240881;22;19920;-86
2023/07/12 11:45:15;;;;;;;;;;;;;;;17.79;51.76;98790.81;6239757;22;19966;-88
2023/07/12 11:47:54;;;;;;;;;;;;;;;17.79;49.63;98793.56;6269414;22;19919;-86
2023/07/12 11:50:26;;;;;;;;;;;;;;;17.57;47.84;98796.00;6211875;22;19919;-86
2023/07/12 11:52:55;;;;;;;;;;;;;;;17.72;47.90;98796.22;6237057;22;19945;-85
2023/07/12 11:55:22;;;;;;;;;;;;;;;17.93;47.59;98792.97;6214381;22;19923;-89
2023/07/12 11:57:49;;;;;;;;;;;;;;;18.13;47.67;98790.84;6240844;22;20395;-87
2023/07/12 12:00:23;;;;;;;;;;;;;;;18.16;45.90;98795.63;6213580;22;20269;-87
2023/07/12 12:02:55;;;;;;;;;;;;;;;18.33;46.74;98792.28;6265674;22;19921;-87
2023/07/12 12:05:34;;;;;;;;;;;;;;;18.48;48.75;98793.25;6217376;22;19986;-87
2023/07/12 12:08:02;;;;;;;;;;;;;;;18.55;46.92;98785.81;6244293;22;19993;-87
2023/07/12 12:10:35;;;;;;;;;;;;;;;18.70;47.56;98789.50;6243161;22;19919;-88
2023/07/12 12:13:14;;;;;;;;;;;;;;;18.73;45.03;98790.75;6225544;22;19946;-87
2023/07/12 12:15:44;;;;;;;;;;;;;;;18.61;46.42;98788.22;6272277;22;19964;-86
2023/07/12 12:18:14;;;;;;;;;;;;;;;18.52;46.09;98794.88;6219035;22;19923;-86
2023/07/12 12:20:51;;;;;;;;;;;;;;;18.52;48.18;98794.88;6268222;22;19923;-89
2023/07/12 12:23:21;;;;;;;;;;;;;;;18.41;46.99;98788.44;6261152;22;20006;-87
2023/07/12 12:25:53;;;;;;;;;;;;;;;18.42;47.69;98790.03;6267397;22;19926;-87
2023/07/12 12:28:27;;;;;;;;;;;;;;;18.51;49.01;98806.34;6212368;22;19926;-87
2023/07/12 12:31:17;;;;;;;;;;;;;;;18.39;46.65;98804.59;6205598;22;19920;-85
2023/07/12 12:33:45;;;;;;;;;;;;;;;18.36;46.78;98805.38;6220211;22;19919;-85
2023/07/12 12:36:20;;;;;;;;;;;;;;;18.17;46.74;98806.31;6260974;22;20095;-84
2023/07/12 12:39:10;;;;;;;;;;;;;;;18.22;47.75;98799.66;6219440;22;19923;-87
2023/07/12 12:41:44;;;;;;;;;;;;;;;18.16;48.74;98807.50;6234977;22;19920;-87
2023/07/12 12:44:11;;;;;;;;;;;;;;;18.06;47.63;98808.94;6238856;22;19926;-90
2023/07/12 12:46:41;;;;;;;;;;;;;;;17.88;47.54;98807.94;6237330;22;20338;-89
2023/07/12 12:49:23;;;;;;;;;;;;;;;17.84;47.49;98796.00;6265987;22;19926;-86
2023/07/12 12:51:50;;;;;;;;;;;;;;;17.66;47.91;98801.25;6261496;22;20010;-89
2023/07/12 12:54:20;;;;;;;;;;;;;;;17.76;48.24;98808.13;6236109;22;19964;-87
2023/07/12 12:56:50;;;;;;;;;;;;;;;17.81;48.67;98802.28;6239254;22;19924;-88
2023/07/12 12:59:17;;;;;;;;;;;;;;;17.78;48.09;98805.78;6239783;22;19942;-89
2023/07/12 13:01:43;;;;;;;;;;;;;;;17.90;47.75;98796.47;6248321;22;19923;-92
2023/07/12 13:04:12;;;;;;;;;;;;;;;18.02;49.10;98802.56;6266315;22;20253;-88
2023/07/12 13:06:40;;;;;;;;;;;;;;;17.92;48.21;98800.47;6239087;22;19927;-87
2023/07/12 13:09:19;;;;;;;;;;;;;;;17.96;47.17;98800.50;6259566;22;19919;-87
2023/07/12 13:11:45;;;;;;;;;;;;;;;18.04;46.52;98805.75;6189139;22;20002;-88
2023/07/12 13:14:13;;;;;;;;;;;;;;;18.00;47.19;98807.69;6219426;22;20349;-84
2023/07/12 13:16:39;;;;;;;;;;;;;;;17.96;47.08;98806.84;6255672;22;19965;-83
2023/07/12 13:19:05;;;;;;;;;;;;;;;17.99;47.13;98800.56;6258497;22;19961;-83
2023/07/12 13:21:33;;;;;;;;;;;;;;;17.95;46.07;98799.72;6231587;22;19919;-84
2023/07/12 13:23:59;;;;;;;;;;;;;;;17.95;47.29;98799.72;6258180;22;20379;-83
2023/07/12 13:26:27;;;;;;;;;;;;;;;17.89;46.43;98797.66;6226029;22;20025;-86
2023/07/12 13:28:53;;;;;;;;;;;;;;;17.88;47.48;98802.41;6227585;22;19954;-84
2023/07/12 13:31:19;;;;;;;;;;;;;;;17.92;47.23;98797.72;6205339;22;19942;-87
2023/07/12 13:33:48;;;;;;;;;;;;;;;17.94;46.79;98795.34;6258065;22;20266;-83
2023/07/12 13:36:25;;;;;;;;;;;;;;;17.92;47.63;98799.69;6234953;22;20772;-86
2023/07/12 13:38:51;;;;;;;;;;;;;;;17.87;47.83;98806.31;6181983;22;19915;-90
2023/07/12 13:41:20;;;;;;;;;;;;;;;17.88;47.97;98807.09;6219456;22;19939;-84
2023/07/12 13:43:54;;;;;;;;;;;;;;;17.83;49.10;98800.75;6235646;22;19923;-84
2023/07/12 13:46:21;;;;;;;;;;;;;;;17.88;49.09;98802.41;6260508;22;20377;-85
2023/07/12 13:48:58;;;;;;;;;;;;;;;17.79;48.00;98799.09;6204788;22;19919;-85
2023/07/12 13:54:12;;;;;;;;;;;;;;;17.73;48.23;98789.50;6258812;22;19934;-85
2023/07/12 13:56:39;;;;;;;;;;;;;;;17.69;48.43;98791.44;6269107;22;19919;-93